sensor_id;sensor_type;location;lat;lon;timestamp;P1;durP1;ratioP1;P2;durP2;ratioP2
54871;SDS011;43914;57.680;11.982;2023-06-14T00:00:43;8.40;;;3.40;;
54871;SDS011;43914;57.680;11.982;2023-06-14T00:03:09;10.00;;;3.10;;
54871;SDS011;43914;57.680;11.982;2023-06-14T00:05:37;7.60;;;2.80;;
54871;SDS011;43914;57.680;11.982;2023-06-14T00:08:08;9.40;;;2.90;;
54871;SDS011;43914;57.680;11.982;2023-06-14T00:10:37;8.90;;;3.10;;
54871;SDS011;43914;57.680;11.982;2023-06-14T00:13:06;9.10;;;3.00;;
54871;SDS011;43914;57.680;11.982;2023-06-14T00:15:32;8.30;;;3.20;;
54871;SDS011;43914;57.680;11.982;2023-06-14T00:17:59;8.10;;;3.10;;
54871;SDS011;43914;57.680;11.982;2023-06-14T00:20:29;8.70;;;2.90;;
54871;SDS011;43914;57.680;11.982;2023-06-14T00:23:01;8.60;;;3.00;;
54871;SDS011;43914;57.680;11.982;2023-06-14T00:25:27;8.90;;;3.00;;
54871;SDS011;43914;57.680;11.982;2023-06-14T00:27:54;9.60;;;3.00;;
54871;SDS011;43914;57.680;11.982;2023-06-14T00:30:20;8.20;;;3.00;;
54871;SDS011;43914;57.680;11.982;2023-06-14T00:32:46;7.50;;;2.60;;
54871;SDS011;43914;57.680;11.982;2023-06-14T00:35:12;8.60;;;3.00;;
54871;SDS011;43914;57.680;11.982;2023-06-14T00:37:38;10.10;;;2.70;;
54871;SDS011;43914;57.680;11.982;2023-06-14T00:40:05;7.70;;;3.10;;
54871;SDS011;43914;57.680;11.982;2023-06-14T00:42:31;9.00;;;3.30;;
54871;SDS011;43914;57.680;11.982;2023-06-14T00:44:57;9.50;;;3.00;;
54871;SDS011;43914;57.680;11.982;2023-06-14T00:47:23;7.50;;;2.90;;
54871;SDS011;43914;57.680;11.982;2023-06-14T00:49:52;7.40;;;2.90;;
54871;SDS011;43914;57.680;11.982;2023-06-14T00:52:21;9.00;;;2.80;;
54871;SDS011;43914;57.680;11.982;2023-06-14T00:54:51;10.70;;;3.40;;
54871;SDS011;43914;57.680;11.982;2023-06-14T00:57:17;9.00;;;3.20;;
54871;SDS011;43914;57.680;11.982;2023-06-14T00:59:45;9.00;;;3.40;;
54871;SDS011;43914;57.680;11.982;2023-06-14T01:02:12;7.40;;;3.00;;
54871;SDS011;43914;57.680;11.982;2023-06-14T01:04:40;8.40;;;3.30;;
54871;SDS011;43914;57.680;11.982;2023-06-14T01:15:47;10.80;;;3.90;;
54871;SDS011;43914;57.680;11.982;2023-06-14T01:18:13;9.90;;;3.70;;
54871;SDS011;43914;57.680;11.982;2023-06-14T01:20:45;10.80;;;4.00;;
54871;SDS011;43914;57.680;11.982;2023-06-14T01:23:18;11.50;;;3.80;;
54871;SDS011;43914;57.680;11.982;2023-06-14T01:25:45;11.20;;;4.00;;
54871;SDS011;43914;57.680;11.982;2023-06-14T01:28:12;12.20;;;3.90;;
54871;SDS011;43914;57.680;11.982;2023-06-14T01:30:44;9.60;;;3.10;;
54871;SDS011;43914;57.680;11.982;2023-06-14T01:33:16;8.20;;;3.10;;
54871;SDS011;43914;57.680;11.982;2023-06-14T01:35:45;9.00;;;3.50;;
54871;SDS011;43914;57.680;11.982;2023-06-14T01:38:12;9.00;;;3.40;;
54871;SDS011;43914;57.680;11.982;2023-06-14T01:40:39;10.40;;;3.30;;
54871;SDS011;43914;57.680;11.982;2023-06-14T01:43:07;7.80;;;3.40;;
54871;SDS011;43914;57.680;11.982;2023-06-14T01:45:34;10.70;;;3.70;;
54871;SDS011;43914;57.680;11.982;2023-06-14T01:48:02;8.70;;;3.70;;
54871;SDS011;43914;57.680;11.982;2023-06-14T01:50:31;10.20;;;3.60;;
54871;SDS011;43914;57.680;11.982;2023-06-14T01:52:57;9.80;;;4.00;;
54871;SDS011;43914;57.680;11.982;2023-06-14T01:55:24;9.60;;;3.70;;
54871;SDS011;43914;57.680;11.982;2023-06-14T01:57:52;10.10;;;3.80;;
54871;SDS011;43914;57.680;11.982;2023-06-14T02:00:19;9.30;;;4.00;;
54871;SDS011;43914;57.680;11.982;2023-06-14T02:02:46;10.60;;;4.20;;
54871;SDS011;43914;57.680;11.982;2023-06-14T02:05:13;10.30;;;4.60;;
54871;SDS011;43914;57.680;11.982;2023-06-14T02:07:38;11.90;;;4.60;;
54871;SDS011;43914;57.680;11.982;2023-06-14T02:10:04;10.70;;;4.80;;
54871;SDS011;43914;57.680;11.982;2023-06-14T02:12:30;10.30;;;4.60;;
54871;SDS011;43914;57.680;11.982;2023-06-14T02:14:56;14.70;;;5.00;;
54871;SDS011;43914;57.680;11.982;2023-06-14T02:17:21;12.40;;;5.30;;
54871;SDS011;43914;57.680;11.982;2023-06-14T02:19:48;11.40;;;5.00;;
54871;SDS011;43914;57.680;11.982;2023-06-14T02:22:14;11.30;;;4.50;;
54871;SDS011;43914;57.680;11.982;2023-06-14T02:24:40;11.80;;;4.80;;
54871;SDS011;43914;57.680;11.982;2023-06-14T02:27:09;9.90;;;4.00;;
54871;SDS011;43914;57.680;11.982;2023-06-14T02:29:37;10.10;;;4.50;;
54871;SDS011;43914;57.680;11.982;2023-06-14T02:32:03;8.10;;;4.00;;
54871;SDS011;43914;57.680;11.982;2023-06-14T02:34:35;8.90;;;3.60;;
54871;SDS011;43914;57.680;11.982;2023-06-14T02:37:01;9.30;;;3.00;;
54871;SDS011;43914;57.680;11.982;2023-06-14T02:39:30;6.60;;;3.00;;
54871;SDS011;43914;57.680;11.982;2023-06-14T02:41:55;6.80;;;3.10;;
54871;SDS011;43914;57.680;11.982;2023-06-14T02:44:25;7.80;;;3.20;;
54871;SDS011;43914;57.680;11.982;2023-06-14T02:46:55;8.60;;;3.10;;
54871;SDS011;43914;57.680;11.982;2023-06-14T02:49:21;7.40;;;2.90;;
54871;SDS011;43914;57.680;11.982;2023-06-14T02:51:48;11.40;;;3.10;;
54871;SDS011;43914;57.680;11.982;2023-06-14T02:54:13;8.30;;;3.00;;
54871;SDS011;43914;57.680;11.982;2023-06-14T02:56:39;6.90;;;2.90;;
54871;SDS011;43914;57.680;11.982;2023-06-14T02:59:04;7.20;;;3.10;;
54871;SDS011;43914;57.680;11.982;2023-06-14T03:01:30;9.30;;;3.40;;
54871;SDS011;43914;57.680;11.982;2023-06-14T03:04:01;9.30;;;3.10;;
54871;SDS011;43914;57.680;11.982;2023-06-14T03:06:28;13.40;;;3.00;;
54871;SDS011;43914;57.680;11.982;2023-06-14T03:08:56;8.00;;;3.00;;
54871;SDS011;43914;57.680;11.982;2023-06-14T03:11:25;8.40;;;3.30;;
54871;SDS011;43914;57.680;11.982;2023-06-14T03:13:52;7.90;;;2.90;;
54871;SDS011;43914;57.680;11.982;2023-06-14T03:16:18;6.60;;;3.00;;
54871;SDS011;43914;57.680;11.982;2023-06-14T03:18:48;7.90;;;2.80;;
54871;SDS011;43914;57.680;11.982;2023-06-14T03:21:20;8.80;;;3.40;;
54871;SDS011;43914;57.680;11.982;2023-06-14T03:23:47;8.60;;;3.20;;
54871;SDS011;43914;57.680;11.982;2023-06-14T03:26:13;7.90;;;3.30;;
54871;SDS011;43914;57.680;11.982;2023-06-14T03:28:43;10.00;;;3.60;;
54871;SDS011;43914;57.680;11.982;2023-06-14T03:31:10;9.00;;;3.20;;
54871;SDS011;43914;57.680;11.982;2023-06-14T03:33:37;9.30;;;3.30;;
54871;SDS011;43914;57.680;11.982;2023-06-14T03:36:04;7.00;;;3.00;;
54871;SDS011;43914;57.680;11.982;2023-06-14T03:38:30;7.50;;;3.20;;
54871;SDS011;43914;57.680;11.982;2023-06-14T03:40:56;6.80;;;2.90;;
54871;SDS011;43914;57.680;11.982;2023-06-14T03:43:21;10.00;;;3.20;;
54871;SDS011;43914;57.680;11.982;2023-06-14T03:45:47;7.50;;;3.10;;
54871;SDS011;43914;57.680;11.982;2023-06-14T03:48:12;8.70;;;3.30;;
54871;SDS011;43914;57.680;11.982;2023-06-14T03:50:38;8.50;;;2.70;;
54871;SDS011;43914;57.680;11.982;2023-06-14T03:53:04;7.70;;;3.20;;
54871;SDS011;43914;57.680;11.982;2023-06-14T03:55:30;7.70;;;3.00;;
54871;SDS011;43914;57.680;11.982;2023-06-14T03:57:59;8.50;;;3.20;;
54871;SDS011;43914;57.680;11.982;2023-06-14T04:00:24;7.70;;;3.50;;
54871;SDS011;43914;57.680;11.982;2023-06-14T04:02:51;8.10;;;3.30;;
54871;SDS011;43914;57.680;11.982;2023-06-14T04:05:18;7.00;;;3.20;;
54871;SDS011;43914;57.680;11.982;2023-06-14T04:07:44;10.20;;;3.30;;
54871;SDS011;43914;57.680;11.982;2023-06-14T04:10:14;7.70;;;3.60;;
54871;SDS011;43914;57.680;11.982;2023-06-14T04:12:42;10.60;;;3.50;;
54871;SDS011;43914;57.680;11.982;2023-06-14T04:15:08;8.80;;;3.30;;
54871;SDS011;43914;57.680;11.982;2023-06-14T04:17:36;7.80;;;3.00;;
54871;SDS011;43914;57.680;11.982;2023-06-14T04:20:02;8.50;;;3.10;;
54871;SDS011;43914;57.680;11.982;2023-06-14T04:22:32;10.40;;;3.60;;
54871;SDS011;43914;57.680;11.982;2023-06-14T04:24:59;7.40;;;3.10;;
54871;SDS011;43914;57.680;11.982;2023-06-14T04:27:25;10.30;;;3.10;;
54871;SDS011;43914;57.680;11.982;2023-06-14T04:29:52;7.70;;;3.30;;
54871;SDS011;43914;57.680;11.982;2023-06-14T04:34:54;8.10;;;3.20;;
54871;SDS011;43914;57.680;11.982;2023-06-14T04:37:21;10.40;;;3.50;;
54871;SDS011;43914;57.680;11.982;2023-06-14T04:39:48;9.10;;;3.30;;
54871;SDS011;43914;57.680;11.982;2023-06-14T04:42:15;14.70;;;3.60;;
54871;SDS011;43914;57.680;11.982;2023-06-14T04:44:42;8.40;;;3.40;;
54871;SDS011;43914;57.680;11.982;2023-06-14T04:47:08;8.10;;;3.40;;
54871;SDS011;43914;57.680;11.982;2023-06-14T04:49:34;8.90;;;3.30;;
54871;SDS011;43914;57.680;11.982;2023-06-14T04:52:00;8.80;;;3.70;;
54871;SDS011;43914;57.680;11.982;2023-06-14T04:54:26;8.70;;;3.90;;
54871;SDS011;43914;57.680;11.982;2023-06-14T04:56:53;9.50;;;3.20;;
54871;SDS011;43914;57.680;11.982;2023-06-14T04:59:20;9.80;;;3.60;;
54871;SDS011;43914;57.680;11.982;2023-06-14T05:01:48;7.90;;;3.50;;
54871;SDS011;43914;57.680;11.982;2023-06-14T05:04:18;8.70;;;3.20;;
54871;SDS011;43914;57.680;11.982;2023-06-14T05:06:47;7.20;;;3.20;;
54871;SDS011;43914;57.680;11.982;2023-06-14T05:09:18;11.60;;;3.20;;
54871;SDS011;43914;57.680;11.982;2023-06-14T05:11:43;9.90;;;3.30;;
54871;SDS011;43914;57.680;11.982;2023-06-14T05:14:10;8.70;;;3.10;;
54871;SDS011;43914;57.680;11.982;2023-06-14T05:16:36;10.50;;;3.40;;
54871;SDS011;43914;57.680;11.982;2023-06-14T05:19:02;7.60;;;3.20;;
54871;SDS011;43914;57.680;11.982;2023-06-14T05:21:29;8.80;;;3.20;;
54871;SDS011;43914;57.680;11.982;2023-06-14T05:23:57;9.60;;;3.10;;
54871;SDS011;43914;57.680;11.982;2023-06-14T05:26:22;9.20;;;3.10;;
54871;SDS011;43914;57.680;11.982;2023-06-14T05:28:50;8.70;;;3.20;;
54871;SDS011;43914;57.680;11.982;2023-06-14T05:31:17;7.60;;;3.30;;
54871;SDS011;43914;57.680;11.982;2023-06-14T05:33:43;11.30;;;3.10;;
54871;SDS011;43914;57.680;11.982;2023-06-14T05:36:08;10.50;;;3.10;;
54871;SDS011;43914;57.680;11.982;2023-06-14T05:38:34;8.50;;;3.40;;
54871;SDS011;43914;57.680;11.982;2023-06-14T05:40:59;9.30;;;3.30;;
54871;SDS011;43914;57.680;11.982;2023-06-14T05:43:25;9.30;;;3.60;;
54871;SDS011;43914;57.680;11.982;2023-06-14T05:45:50;8.50;;;3.20;;
54871;SDS011;43914;57.680;11.982;2023-06-14T05:48:16;9.70;;;3.30;;
54871;SDS011;43914;57.680;11.982;2023-06-14T05:50:41;10.40;;;3.60;;
54871;SDS011;43914;57.680;11.982;2023-06-14T05:53:06;8.90;;;3.60;;
54871;SDS011;43914;57.680;11.982;2023-06-14T05:55:32;9.20;;;3.60;;
54871;SDS011;43914;57.680;11.982;2023-06-14T05:57:57;9.00;;;3.70;;
54871;SDS011;43914;57.680;11.982;2023-06-14T06:00:23;8.20;;;3.30;;
54871;SDS011;43914;57.680;11.982;2023-06-14T06:02:48;6.80;;;2.50;;
54871;SDS011;43914;57.680;11.982;2023-06-14T06:05:14;9.40;;;3.60;;
54871;SDS011;43914;57.680;11.982;2023-06-14T06:07:43;9.60;;;4.00;;
54871;SDS011;43914;57.680;11.982;2023-06-14T06:10:12;10.80;;;3.60;;
54871;SDS011;43914;57.680;11.982;2023-06-14T06:12:37;8.60;;;3.40;;
54871;SDS011;43914;57.680;11.982;2023-06-14T06:15:03;9.10;;;3.70;;
54871;SDS011;43914;57.680;11.982;2023-06-14T06:17:29;9.00;;;3.70;;
54871;SDS011;43914;57.680;11.982;2023-06-14T06:19:55;11.00;;;3.40;;
54871;SDS011;43914;57.680;11.982;2023-06-14T06:22:21;10.20;;;3.40;;
54871;SDS011;43914;57.680;11.982;2023-06-14T06:24:46;8.60;;;3.50;;
54871;SDS011;43914;57.680;11.982;2023-06-14T06:27:12;9.70;;;3.20;;
54871;SDS011;43914;57.680;11.982;2023-06-14T06:29:38;10.10;;;3.80;;
54871;SDS011;43914;57.680;11.982;2023-06-14T06:32:03;12.70;;;3.20;;
54871;SDS011;43914;57.680;11.982;2023-06-14T06:34:29;8.20;;;3.30;;
54871;SDS011;43914;57.680;11.982;2023-06-14T06:36:55;11.60;;;3.40;;
54871;SDS011;43914;57.680;11.982;2023-06-14T06:39:21;10.30;;;3.50;;
54871;SDS011;43914;57.680;11.982;2023-06-14T06:41:47;8.40;;;3.40;;
54871;SDS011;43914;57.680;11.982;2023-06-14T06:44:12;8.20;;;3.20;;
54871;SDS011;43914;57.680;11.982;2023-06-14T06:46:38;9.00;;;3.30;;
54871;SDS011;43914;57.680;11.982;2023-06-14T06:49:08;18.50;;;3.10;;
54871;SDS011;43914;57.680;11.982;2023-06-14T06:51:37;9.00;;;2.90;;
54871;SDS011;43914;57.680;11.982;2023-06-14T06:54:02;8.50;;;3.00;;
54871;SDS011;43914;57.680;11.982;2023-06-14T06:56:28;13.20;;;3.20;;
54871;SDS011;43914;57.680;11.982;2023-06-14T06:58:54;11.60;;;3.00;;
54871;SDS011;43914;57.680;11.982;2023-06-14T07:01:19;8.80;;;3.60;;
54871;SDS011;43914;57.680;11.982;2023-06-14T07:03:45;9.40;;;3.00;;
54871;SDS011;43914;57.680;11.982;2023-06-14T07:06:11;12.60;;;3.40;;
54871;SDS011;43914;57.680;11.982;2023-06-14T07:08:37;9.10;;;3.10;;
54871;SDS011;43914;57.680;11.982;2023-06-14T07:11:03;10.00;;;3.70;;
54871;SDS011;43914;57.680;11.982;2023-06-14T07:13:30;13.10;;;3.10;;
54871;SDS011;43914;57.680;11.982;2023-06-14T07:15:57;9.70;;;3.00;;
54871;SDS011;43914;57.680;11.982;2023-06-14T07:18:24;9.00;;;3.10;;
54871;SDS011;43914;57.680;11.982;2023-06-14T07:20:50;8.00;;;3.20;;
54871;SDS011;43914;57.680;11.982;2023-06-14T07:23:15;13.90;;;3.50;;
54871;SDS011;43914;57.680;11.982;2023-06-14T07:25:41;8.30;;;3.00;;
54871;SDS011;43914;57.680;11.982;2023-06-14T07:28:06;10.90;;;3.20;;
54871;SDS011;43914;57.680;11.982;2023-06-14T07:30:32;10.00;;;2.90;;
54871;SDS011;43914;57.680;11.982;2023-06-14T07:32:57;8.80;;;2.90;;
54871;SDS011;43914;57.680;11.982;2023-06-14T07:35:23;10.70;;;3.20;;
54871;SDS011;43914;57.680;11.982;2023-06-14T07:37:48;8.90;;;3.00;;
54871;SDS011;43914;57.680;11.982;2023-06-14T07:40:15;8.20;;;2.70;;
54871;SDS011;43914;57.680;11.982;2023-06-14T07:42:40;9.90;;;2.60;;
54871;SDS011;43914;57.680;11.982;2023-06-14T07:45:06;10.10;;;3.20;;
54871;SDS011;43914;57.680;11.982;2023-06-14T07:47:32;8.50;;;3.10;;
54871;SDS011;43914;57.680;11.982;2023-06-14T07:49:58;10.10;;;3.10;;
54871;SDS011;43914;57.680;11.982;2023-06-14T07:52:26;7.30;;;3.00;;
54871;SDS011;43914;57.680;11.982;2023-06-14T07:54:51;7.40;;;3.10;;
54871;SDS011;43914;57.680;11.982;2023-06-14T07:57:17;10.50;;;2.80;;
54871;SDS011;43914;57.680;11.982;2023-06-14T07:59:45;11.70;;;3.00;;
54871;SDS011;43914;57.680;11.982;2023-06-14T08:02:11;7.00;;;2.60;;
54871;SDS011;43914;57.680;11.982;2023-06-14T08:04:36;7.60;;;2.90;;
54871;SDS011;43914;57.680;11.982;2023-06-14T08:07:02;8.20;;;2.90;;
54871;SDS011;43914;57.680;11.982;2023-06-14T08:09:27;6.80;;;3.00;;
54871;SDS011;43914;57.680;11.982;2023-06-14T08:11:54;7.80;;;2.60;;
54871;SDS011;43914;57.680;11.982;2023-06-14T08:14:20;7.50;;;2.90;;
54871;SDS011;43914;57.680;11.982;2023-06-14T08:16:45;10.30;;;3.20;;
54871;SDS011;43914;57.680;11.982;2023-06-14T08:19:11;12.50;;;2.80;;
54871;SDS011;43914;57.680;11.982;2023-06-14T08:21:36;8.50;;;2.70;;
54871;SDS011;43914;57.680;11.982;2023-06-14T08:24:02;11.60;;;3.00;;
54871;SDS011;43914;57.680;11.982;2023-06-14T08:26:29;6.90;;;2.70;;
54871;SDS011;43914;57.680;11.982;2023-06-14T08:28:55;10.60;;;2.60;;
54871;SDS011;43914;57.680;11.982;2023-06-14T08:31:21;8.40;;;3.10;;
54871;SDS011;43914;57.680;11.982;2023-06-14T08:33:47;8.90;;;2.70;;
54871;SDS011;43914;57.680;11.982;2023-06-14T08:36:12;9.00;;;2.80;;
54871;SDS011;43914;57.680;11.982;2023-06-14T08:38:41;7.90;;;2.80;;
54871;SDS011;43914;57.680;11.982;2023-06-14T08:41:06;9.60;;;3.10;;
54871;SDS011;43914;57.680;11.982;2023-06-14T08:43:33;10.10;;;3.00;;
54871;SDS011;43914;57.680;11.982;2023-06-14T08:46:00;10.50;;;3.20;;
54871;SDS011;43914;57.680;11.982;2023-06-14T08:48:29;9.10;;;3.10;;
54871;SDS011;43914;57.680;11.982;2023-06-14T08:51:01;9.70;;;3.20;;
54871;SDS011;43914;57.680;11.982;2023-06-14T08:53:32;9.30;;;3.20;;
54871;SDS011;43914;57.680;11.982;2023-06-14T08:56:02;8.50;;;3.30;;
54871;SDS011;43914;57.680;11.982;2023-06-14T08:58:30;10.20;;;3.10;;
54871;SDS011;43914;57.680;11.982;2023-06-14T09:01:02;11.40;;;3.00;;
54871;SDS011;43914;57.680;11.982;2023-06-14T09:03:34;10.80;;;3.60;;
54871;SDS011;43914;57.680;11.982;2023-06-14T09:06:00;14.40;;;3.20;;
54871;SDS011;43914;57.680;11.982;2023-06-14T09:08:28;7.30;;;2.80;;
54871;SDS011;43914;57.680;11.982;2023-06-14T09:10:55;10.00;;;3.60;;
54871;SDS011;43914;57.680;11.982;2023-06-14T09:13:22;8.10;;;2.70;;
54871;SDS011;43914;57.680;11.982;2023-06-14T09:15:48;10.90;;;3.30;;
54871;SDS011;43914;57.680;11.982;2023-06-14T09:18:14;10.50;;;3.40;;
54871;SDS011;43914;57.680;11.982;2023-06-14T09:20:40;14.70;;;3.40;;
54871;SDS011;43914;57.680;11.982;2023-06-14T09:23:06;11.40;;;3.30;;
54871;SDS011;43914;57.680;11.982;2023-06-14T09:25:38;13.90;;;3.10;;
54871;SDS011;43914;57.680;11.982;2023-06-14T09:28:07;8.30;;;3.20;;
54871;SDS011;43914;57.680;11.982;2023-06-14T09:30:33;10.40;;;3.30;;
54871;SDS011;43914;57.680;11.982;2023-06-14T09:32:59;12.20;;;3.30;;
54871;SDS011;43914;57.680;11.982;2023-06-14T09:35:26;11.30;;;3.40;;
54871;SDS011;43914;57.680;11.982;2023-06-14T09:37:54;14.70;;;3.20;;
54871;SDS011;43914;57.680;11.982;2023-06-14T09:40:21;10.80;;;3.50;;
54871;SDS011;43914;57.680;11.982;2023-06-14T09:42:47;16.40;;;3.40;;
54871;SDS011;43914;57.680;11.982;2023-06-14T09:45:13;11.10;;;3.50;;
54871;SDS011;43914;57.680;11.982;2023-06-14T09:47:39;9.80;;;3.40;;
54871;SDS011;43914;57.680;11.982;2023-06-14T09:50:05;13.00;;;3.50;;
54871;SDS011;43914;57.680;11.982;2023-06-14T09:52:31;10.30;;;3.50;;
54871;SDS011;43914;57.680;11.982;2023-06-14T09:54:57;10.90;;;3.30;;
54871;SDS011;43914;57.680;11.982;2023-06-14T09:57:24;10.70;;;3.50;;
54871;SDS011;43914;57.680;11.982;2023-06-14T09:59:56;13.00;;;4.10;;
54871;SDS011;43914;57.680;11.982;2023-06-14T10:02:26;11.50;;;3.10;;
54871;SDS011;43914;57.680;11.982;2023-06-14T10:05:03;11.00;;;3.20;;
54871;SDS011;43914;57.680;11.982;2023-06-14T10:07:44;7.70;;;3.10;;
54871;SDS011;43914;57.680;11.982;2023-06-14T10:10:17;11.60;;;2.90;;
54871;SDS011;43914;57.680;11.982;2023-06-14T10:12:43;8.30;;;2.80;;
54871;SDS011;43914;57.680;11.982;2023-06-14T10:15:27;11.10;;;3.30;;
54871;SDS011;43914;57.680;11.982;2023-06-14T10:23:48;8.60;;;3.10;;
54871;SDS011;43914;57.680;11.982;2023-06-14T10:26:19;7.70;;;3.00;;
54871;SDS011;43914;57.680;11.982;2023-06-14T10:34:11;6.80;;;2.70;;
54871;SDS011;43914;57.680;11.982;2023-06-14T10:36:45;9.40;;;2.90;;
54871;SDS011;43914;57.680;11.982;2023-06-14T10:39:14;7.90;;;2.80;;
54871;SDS011;43914;57.680;11.982;2023-06-14T10:41:42;9.30;;;2.80;;
54871;SDS011;43914;57.680;11.982;2023-06-14T10:46:46;8.90;;;3.00;;
54871;SDS011;43914;57.680;11.982;2023-06-14T10:49:16;8.90;;;2.90;;
54871;SDS011;43914;57.680;11.982;2023-06-14T10:51:45;8.30;;;2.90;;
54871;SDS011;43914;57.680;11.982;2023-06-14T10:54:15;8.20;;;2.90;;
54871;SDS011;43914;57.680;11.982;2023-06-14T10:56:48;6.50;;;2.80;;
54871;SDS011;43914;57.680;11.982;2023-06-14T10:59:18;8.00;;;3.00;;
54871;SDS011;43914;57.680;11.982;2023-06-14T11:01:57;8.20;;;2.90;;
54871;SDS011;43914;57.680;11.982;2023-06-14T11:04:28;6.90;;;2.90;;
54871;SDS011;43914;57.680;11.982;2023-06-14T11:07:22;10.70;;;2.90;;
54871;SDS011;43914;57.680;11.982;2023-06-14T11:12:40;7.90;;;2.70;;
54871;SDS011;43914;57.680;11.982;2023-06-14T11:15:10;9.80;;;2.90;;
54871;SDS011;43914;57.680;11.982;2023-06-14T11:17:36;9.60;;;2.80;;
54871;SDS011;43914;57.680;11.982;2023-06-14T11:20:11;12.50;;;2.50;;
54871;SDS011;43914;57.680;11.982;2023-06-14T11:22:41;10.50;;;3.40;;
54871;SDS011;43914;57.680;11.982;2023-06-14T11:25:13;11.40;;;2.90;;
54871;SDS011;43914;57.680;11.982;2023-06-14T11:27:43;9.90;;;2.60;;
54871;SDS011;43914;57.680;11.982;2023-06-14T11:30:09;9.90;;;2.90;;
54871;SDS011;43914;57.680;11.982;2023-06-14T11:32:35;7.60;;;2.60;;
54871;SDS011;43914;57.680;11.982;2023-06-14T11:35:02;13.40;;;3.00;;
54871;SDS011;43914;57.680;11.982;2023-06-14T11:37:30;13.10;;;2.60;;
54871;SDS011;43914;57.680;11.982;2023-06-14T11:39:58;9.70;;;2.80;;
54871;SDS011;43914;57.680;11.982;2023-06-14T11:42:26;9.40;;;2.50;;
54871;SDS011;43914;57.680;11.982;2023-06-14T11:44:53;11.30;;;2.50;;
54871;SDS011;43914;57.680;11.982;2023-06-14T11:47:20;10.30;;;3.10;;
54871;SDS011;43914;57.680;11.982;2023-06-14T11:49:46;7.60;;;3.00;;
54871;SDS011;43914;57.680;11.982;2023-06-14T11:52:12;11.50;;;2.70;;
54871;SDS011;43914;57.680;11.982;2023-06-14T11:54:38;10.70;;;2.90;;
54871;SDS011;43914;57.680;11.982;2023-06-14T11:57:06;10.30;;;2.70;;
54871;SDS011;43914;57.680;11.982;2023-06-14T11:59:41;15.50;;;3.00;;
54871;SDS011;43914;57.680;11.982;2023-06-14T12:02:09;12.40;;;3.00;;
54871;SDS011;43914;57.680;11.982;2023-06-14T12:04:35;8.70;;;2.80;;
54871;SDS011;43914;57.680;11.982;2023-06-14T12:07:10;7.90;;;2.80;;
54871;SDS011;43914;57.680;11.982;2023-06-14T12:12:24;12.20;;;2.80;;
54871;SDS011;43914;57.680;11.982;2023-06-14T12:14:51;12.50;;;2.90;;
54871;SDS011;43914;57.680;11.982;2023-06-14T12:17:17;13.80;;;3.10;;
54871;SDS011;43914;57.680;11.982;2023-06-14T12:19:46;12.80;;;2.80;;
54871;SDS011;43914;57.680;11.982;2023-06-14T12:22:13;9.80;;;2.80;;
54871;SDS011;43914;57.680;11.982;2023-06-14T12:24:39;9.50;;;2.50;;
54871;SDS011;43914;57.680;11.982;2023-06-14T12:27:08;7.30;;;2.40;;
54871;SDS011;43914;57.680;11.982;2023-06-14T12:29:34;7.30;;;2.70;;
54871;SDS011;43914;57.680;11.982;2023-06-14T12:32:01;9.80;;;2.90;;
54871;SDS011;43914;57.680;11.982;2023-06-14T12:34:26;9.30;;;2.90;;
54871;SDS011;43914;57.680;11.982;2023-06-14T12:36:53;10.20;;;3.00;;
54871;SDS011;43914;57.680;11.982;2023-06-14T12:39:19;8.70;;;2.80;;
54871;SDS011;43914;57.680;11.982;2023-06-14T12:41:45;8.90;;;2.60;;
54871;SDS011;43914;57.680;11.982;2023-06-14T12:44:12;7.00;;;2.60;;
54871;SDS011;43914;57.680;11.982;2023-06-14T12:46:38;9.90;;;3.00;;
54871;SDS011;43914;57.680;11.982;2023-06-14T12:49:05;11.90;;;3.00;;
54871;SDS011;43914;57.680;11.982;2023-06-14T12:51:32;7.90;;;2.60;;
54871;SDS011;43914;57.680;11.982;2023-06-14T12:53:57;6.90;;;2.50;;
54871;SDS011;43914;57.680;11.982;2023-06-14T12:56:23;8.00;;;3.10;;
54871;SDS011;43914;57.680;11.982;2023-06-14T12:58:48;10.80;;;2.90;;
54871;SDS011;43914;57.680;11.982;2023-06-14T13:01:14;8.90;;;3.20;;
54871;SDS011;43914;57.680;11.982;2023-06-14T13:03:39;6.50;;;2.60;;
54871;SDS011;43914;57.680;11.982;2023-06-14T13:06:05;8.20;;;2.70;;
54871;SDS011;43914;57.680;11.982;2023-06-14T13:08:31;9.90;;;3.30;;
54871;SDS011;43914;57.680;11.982;2023-06-14T13:10:59;11.50;;;2.40;;
54871;SDS011;43914;57.680;11.982;2023-06-14T13:13:25;15.60;;;2.80;;
54871;SDS011;43914;57.680;11.982;2023-06-14T13:15:51;9.20;;;2.70;;
54871;SDS011;43914;57.680;11.982;2023-06-14T13:18:16;8.40;;;2.90;;
54871;SDS011;43914;57.680;11.982;2023-06-14T13:20:42;10.90;;;2.60;;
54871;SDS011;43914;57.680;11.982;2023-06-14T13:23:08;10.80;;;3.00;;
54871;SDS011;43914;57.680;11.982;2023-06-14T13:25:35;8.80;;;3.00;;
54871;SDS011;43914;57.680;11.982;2023-06-14T13:28:01;9.60;;;2.90;;
54871;SDS011;43914;57.680;11.982;2023-06-14T13:30:27;10.30;;;2.80;;
54871;SDS011;43914;57.680;11.982;2023-06-14T13:32:52;6.50;;;2.50;;
54871;SDS011;43914;57.680;11.982;2023-06-14T13:35:18;9.10;;;2.80;;
54871;SDS011;43914;57.680;11.982;2023-06-14T13:37:45;8.40;;;2.60;;
54871;SDS011;43914;57.680;11.982;2023-06-14T13:40:11;6.70;;;2.40;;
54871;SDS011;43914;57.680;11.982;2023-06-14T13:42:37;7.70;;;2.80;;
54871;SDS011;43914;57.680;11.982;2023-06-14T13:45:02;6.50;;;2.80;;
54871;SDS011;43914;57.680;11.982;2023-06-14T13:47:29;6.60;;;2.40;;
54871;SDS011;43914;57.680;11.982;2023-06-14T13:49:56;6.20;;;2.60;;
54871;SDS011;43914;57.680;11.982;2023-06-14T13:52:22;9.20;;;2.50;;
54871;SDS011;43914;57.680;11.982;2023-06-14T13:54:48;9.70;;;2.70;;
54871;SDS011;43914;57.680;11.982;2023-06-14T13:57:13;9.20;;;2.80;;
54871;SDS011;43914;57.680;11.982;2023-06-14T13:59:40;5.80;;;2.30;;
54871;SDS011;43914;57.680;11.982;2023-06-14T14:02:06;8.80;;;2.50;;
54871;SDS011;43914;57.680;11.982;2023-06-14T14:04:33;8.40;;;2.80;;
54871;SDS011;43914;57.680;11.982;2023-06-14T14:07:00;7.80;;;2.60;;
54871;SDS011;43914;57.680;11.982;2023-06-14T14:09:27;8.00;;;2.80;;
54871;SDS011;43914;57.680;11.982;2023-06-14T14:11:52;8.30;;;2.70;;
54871;SDS011;43914;57.680;11.982;2023-06-14T14:14:18;7.90;;;2.50;;
54871;SDS011;43914;57.680;11.982;2023-06-14T14:16:43;8.70;;;2.80;;
54871;SDS011;43914;57.680;11.982;2023-06-14T14:19:09;10.20;;;2.50;;
54871;SDS011;43914;57.680;11.982;2023-06-14T14:21:34;7.10;;;2.60;;
54871;SDS011;43914;57.680;11.982;2023-06-14T14:24:00;7.80;;;2.40;;
54871;SDS011;43914;57.680;11.982;2023-06-14T14:26:26;6.70;;;2.70;;
54871;SDS011;43914;57.680;11.982;2023-06-14T14:28:51;6.60;;;2.60;;
54871;SDS011;43914;57.680;11.982;2023-06-14T14:31:17;7.00;;;2.70;;
54871;SDS011;43914;57.680;11.982;2023-06-14T14:33:43;7.40;;;2.60;;
54871;SDS011;43914;57.680;11.982;2023-06-14T14:36:08;8.20;;;2.90;;
54871;SDS011;43914;57.680;11.982;2023-06-14T14:38:34;9.20;;;2.50;;
54871;SDS011;43914;57.680;11.982;2023-06-14T14:40:59;7.70;;;2.40;;
54871;SDS011;43914;57.680;11.982;2023-06-14T14:43:25;8.10;;;2.80;;
54871;SDS011;43914;57.680;11.982;2023-06-14T14:45:52;8.00;;;2.70;;
54871;SDS011;43914;57.680;11.982;2023-06-14T14:48:17;7.30;;;2.90;;
54871;SDS011;43914;57.680;11.982;2023-06-14T14:50:43;6.30;;;2.40;;
54871;SDS011;43914;57.680;11.982;2023-06-14T14:53:09;6.90;;;2.60;;
54871;SDS011;43914;57.680;11.982;2023-06-14T14:55:34;7.90;;;2.50;;
54871;SDS011;43914;57.680;11.982;2023-06-14T14:58:05;8.70;;;2.50;;
54871;SDS011;43914;57.680;11.982;2023-06-14T15:00:32;9.30;;;2.80;;